sensor_id;sensor_type;location;lat;lon;timestamp;pressure;altitude;pressure_sealevel;temperature;humidity
24558;BME280;12726;49.148;8.582;2023-08-12T00:00:33;100527.25;;;20.17;93.62
24558;BME280;12726;49.148;8.582;2023-08-12T00:03:20;100524.78;;;20.15;93.85
24558;BME280;12726;49.148;8.582;2023-08-12T00:06:06;100520.41;;;20.14;93.97
24558;BME280;12726;49.148;8.582;2023-08-12T00:08:52;100518.22;;;20.11;94.07
24558;BME280;12726;49.148;8.582;2023-08-12T00:11:37;100513.56;;;20.12;93.96
24558;BME280;12726;49.148;8.582;2023-08-12T00:14:23;100520.13;;;20.11;94.19
24558;BME280;12726;49.148;8.582;2023-08-12T00:17:08;100517.94;;;20.08;94.17
24558;BME280;12726;49.148;8.582;2023-08-12T00:19:54;100509.19;;;20.06;94.13
24558;BME280;12726;49.148;8.582;2023-08-12T00:22:41;100510.28;;;20.05;94.06
24558;BME280;12726;49.148;8.582;2023-08-12T00:25:27;100508.38;;;20.00;94.42
24558;BME280;12726;49.148;8.582;2023-08-12T00:28:12;100505.66;;;20.00;94.63
24558;BME280;12726;49.148;8.582;2023-08-12T00:30:57;100501.00;;;20.01;94.37
24558;BME280;12726;49.148;8.582;2023-08-12T00:33:42;100497.19;;;20.02;94.03
24558;BME280;12726;49.148;8.582;2023-08-12T00:36:28;100500.19;;;20.00;94.15
24558;BME280;12726;49.148;8.582;2023-08-12T00:39:15;100494.44;;;20.02;94.27
24558;BME280;12726;49.148;8.582;2023-08-12T00:41:59;100497.19;;;20.02;94.00
24558;BME280;12726;49.148;8.582;2023-08-12T00:44:45;100486.25;;;20.02;94.23
24558;BME280;12726;49.148;8.582;2023-08-12T00:47:30;100483.53;;;20.02;94.50
24558;BME280;12726;49.148;8.582;2023-08-12T00:50:16;100481.88;;;20.06;94.04
24558;BME280;12726;49.148;8.582;2023-08-12T00:53:01;100487.88;;;20.13;93.57
24558;BME280;12726;49.148;8.582;2023-08-12T00:55:48;100484.59;;;20.11;93.59
24558;BME280;12726;49.148;8.582;2023-08-12T00:58:34;100480.25;;;20.10;93.95
24558;BME280;12726;49.148;8.582;2023-08-12T01:01:20;100480.25;;;20.10;94.21
24558;BME280;12726;49.148;8.582;2023-08-12T01:04:06;100479.41;;;20.09;94.07
24558;BME280;12726;49.148;8.582;2023-08-12T01:06:51;100472.56;;;20.12;94.09
24558;BME280;12726;49.148;8.582;2023-08-12T01:09:36;100472.31;;;20.13;94.07
24558;BME280;12726;49.148;8.582;2023-08-12T01:12:27;100477.78;;;20.13;94.03
24558;BME280;12726;49.148;8.582;2023-08-12T01:15:15;100478.03;;;20.12;94.26
24558;BME280;12726;49.148;8.582;2023-08-12T01:18:05;100471.22;;;20.09;94.22
24558;BME280;12726;49.148;8.582;2023-08-12T01:20:52;100476.97;;;20.08;94.66
24558;BME280;12726;49.148;8.582;2023-08-12T01:23:39;100479.13;;;20.06;94.76
24558;BME280;12726;49.148;8.582;2023-08-12T01:26:24;100482.13;;;20.04;94.93
24558;BME280;12726;49.148;8.582;2023-08-12T01:29:10;100483.50;;;20.07;94.56
24558;BME280;12726;49.148;8.582;2023-08-12T01:32:03;100483.50;;;20.07;94.92
24558;BME280;12726;49.148;8.582;2023-08-12T01:35:00;100480.78;;;20.07;94.48
24558;BME280;12726;49.148;8.582;2023-08-12T01:37:50;100487.06;;;20.07;94.62
24558;BME280;12726;49.148;8.582;2023-08-12T01:40:38;100484.88;;;20.09;94.32
24558;BME280;12726;49.148;8.582;2023-08-12T01:43:25;100492.00;;;20.10;94.63
24558;BME280;12726;49.148;8.582;2023-08-12T01:46:11;100483.50;;;20.07;94.09
24558;BME280;12726;49.148;8.582;2023-08-12T01:48:56;100486.78;;;20.14;94.16
24558;BME280;12726;49.148;8.582;2023-08-12T01:51:41;100488.16;;;20.16;93.54
24558;BME280;12726;49.148;8.582;2023-08-12T01:54:27;100487.06;;;20.17;93.89
24558;BME280;12726;49.148;8.582;2023-08-12T01:57:18;100487.59;;;20.19;94.21
24558;BME280;12726;49.148;8.582;2023-08-12T02:00:06;100493.88;;;20.20;94.23
24558;BME280;12726;49.148;8.582;2023-08-12T02:02:52;100487.06;;;20.17;94.77
24558;BME280;12726;49.148;8.582;2023-08-12T02:05:37;100500.19;;;20.15;94.52
24558;BME280;12726;49.148;8.582;2023-08-12T02:08:23;100494.16;;;20.13;94.86
24558;BME280;12726;49.148;8.582;2023-08-12T02:11:08;100493.63;;;20.11;95.34
24558;BME280;12726;49.148;8.582;2023-08-12T02:13:55;100500.47;;;20.09;95.84
24558;BME280;12726;49.148;8.582;2023-08-12T02:16:41;100496.09;;;20.08;95.46
24558;BME280;12726;49.148;8.582;2023-08-12T02:19:26;100493.09;;;20.09;95.97
24558;BME280;12726;49.148;8.582;2023-08-12T02:22:11;100495.81;;;20.09;96.14
24558;BME280;12726;49.148;8.582;2023-08-12T02:24:57;100504.28;;;20.08;96.25
24558;BME280;12726;49.148;8.582;2023-08-12T02:27:42;100505.66;;;20.05;96.22
24558;BME280;12726;49.148;8.582;2023-08-12T02:30:30;100493.38;;;20.03;97.05
24558;BME280;12726;49.148;8.582;2023-08-12T02:33:15;100492.81;;;19.96;97.22
24558;BME280;12726;49.148;8.582;2023-08-12T02:36:01;100492.00;;;19.95;98.11
24558;BME280;12726;49.148;8.582;2023-08-12T02:38:46;100492.53;;;19.87;98.75
24558;BME280;12726;49.148;8.582;2023-08-12T02:41:31;100491.69;;;19.76;100.00
24558;BME280;12726;49.148;8.582;2023-08-12T02:44:17;100495.75;;;19.69;100.00
24558;BME280;12726;49.148;8.582;2023-08-12T02:47:04;100486.75;;;19.63;100.00
24558;BME280;12726;49.148;8.582;2023-08-12T02:49:49;100493.84;;;19.64;100.00
24558;BME280;12726;49.148;8.582;2023-08-12T02:52:35;100491.13;;;19.64;100.00
24558;BME280;12726;49.148;8.582;2023-08-12T02:55:20;100494.66;;;19.65;100.00
24558;BME280;12726;49.148;8.582;2023-08-12T02:58:05;100494.66;;;19.65;100.00
24558;BME280;12726;49.148;8.582;2023-08-12T03:00:51;100487.03;;;19.67;100.00
24558;BME280;12726;49.148;8.582;2023-08-12T03:03:38;100494.41;;;19.66;100.00
24558;BME280;12726;49.148;8.582;2023-08-12T03:06:23;100488.38;;;19.69;100.00
24558;BME280;12726;49.148;8.582;2023-08-12T03:09:08;100479.41;;;19.74;100.00
24558;BME280;12726;49.148;8.582;2023-08-12T03:11:53;100490.59;;;19.77;100.00
24558;BME280;12726;49.148;8.582;2023-08-12T03:14:39;100475.84;;;19.78;100.00
24558;BME280;12726;49.148;8.582;2023-08-12T03:17:24;100460.00;;;19.80;100.00
24558;BME280;12726;49.148;8.582;2023-08-12T03:20:11;100460.81;;;19.81;100.00
24558;BME280;12726;49.148;8.582;2023-08-12T03:22:56;100469.28;;;19.84;100.00
24558;BME280;12726;49.148;8.582;2023-08-12T03:25:42;100477.22;;;19.86;100.00
24558;BME280;12726;49.148;8.582;2023-08-12T03:28:27;100465.19;;;19.87;100.00
24558;BME280;12726;49.148;8.582;2023-08-12T03:31:12;100464.38;;;19.86;100.00
24558;BME280;12726;49.148;8.582;2023-08-12T03:33:57;100451.53;;;19.87;100.00
24558;BME280;12726;49.148;8.582;2023-08-12T03:36:44;100443.34;;;19.87;100.00
24558;BME280;12726;49.148;8.582;2023-08-12T03:39:32;100439.50;;;19.83;100.00
24558;BME280;12726;49.148;8.582;2023-08-12T03:42:18;100437.59;;;19.78;100.00
24558;BME280;12726;49.148;8.582;2023-08-12T03:45:05;100458.63;;;19.73;100.00
24558;BME280;12726;49.148;8.582;2023-08-12T03:47:50;100469.25;;;19.69;100.00
24558;BME280;12726;49.148;8.582;2023-08-12T03:50:35;100460.81;;;19.66;100.00
24558;BME280;12726;49.148;8.582;2023-08-12T03:53:22;100448.78;;;19.67;100.00
24558;BME280;12726;49.148;8.582;2023-08-12T03:56:07;100451.53;;;19.67;100.00
24558;BME280;12726;49.148;8.582;2023-08-12T03:58:52;100452.06;;;19.69;100.00
24558;BME280;12726;49.148;8.582;2023-08-12T04:01:38;100446.31;;;19.70;100.00
24558;BME280;12726;49.148;8.582;2023-08-12T04:04:23;100435.09;;;19.62;100.00
24558;BME280;12726;49.148;8.582;2023-08-12T04:07:08;100450.44;;;19.68;100.00
24558;BME280;12726;49.148;8.582;2023-08-12T04:09:55;100452.34;;;19.67;100.00
24558;BME280;12726;49.148;8.582;2023-08-12T04:12:40;100448.25;;;19.65;100.00
24558;BME280;12726;49.148;8.582;2023-08-12T04:15:26;100449.31;;;19.64;100.00
24558;BME280;12726;49.148;8.582;2023-08-12T04:18:11;100455.34;;;19.66;100.00
24558;BME280;12726;49.148;8.582;2023-08-12T04:20:57;100468.75;;;19.67;100.00
24558;BME280;12726;49.148;8.582;2023-08-12T04:23:42;100469.81;;;19.71;100.00
24558;BME280;12726;49.148;8.582;2023-08-12T04:26:29;100469.56;;;19.73;100.00
24558;BME280;12726;49.148;8.582;2023-08-12T04:29:15;100472.03;;;19.74;100.00
24558;BME280;12726;49.148;8.582;2023-08-12T04:32:00;100467.91;;;19.77;100.00
24558;BME280;12726;49.148;8.582;2023-08-12T04:34:45;100481.03;;;19.80;100.00
24558;BME280;12726;49.148;8.582;2023-08-12T04:37:31;100476.41;;;19.80;100.00
24558;BME280;12726;49.148;8.582;2023-08-12T04:40:17;100476.94;;;19.82;100.00
24558;BME280;12726;49.148;8.582;2023-08-12T04:43:03;100473.66;;;19.85;100.00
24558;BME280;12726;49.148;8.582;2023-08-12T04:45:49;100476.41;;;19.85;100.00
24558;BME280;12726;49.148;8.582;2023-08-12T04:48:34;100470.94;;;19.90;100.00
24558;BME280;12726;49.148;8.582;2023-08-12T04:51:19;100471.22;;;19.94;100.00
24558;BME280;12726;49.148;8.582;2023-08-12T04:54:05;100463.03;;;19.94;100.00
24558;BME280;12726;49.148;8.582;2023-08-12T04:56:51;100460.28;;;19.94;100.00
24558;BME280;12726;49.148;8.582;2023-08-12T04:59:38;100464.66;;;19.95;100.00
24558;BME280;12726;49.148;8.582;2023-08-12T05:02:23;100471.47;;;19.98;100.00
24558;BME280;12726;49.148;8.582;2023-08-12T05:05:08;100471.47;;;19.98;100.00
24558;BME280;12726;49.148;8.582;2023-08-12T05:07:54;100468.22;;;20.01;100.00
24558;BME280;12726;49.148;8.582;2023-08-12T05:10:40;100460.28;;;20.09;100.00
24558;BME280;12726;49.148;8.582;2023-08-12T05:13:25;100465.47;;;20.21;100.00
24558;BME280;12726;49.148;8.582;2023-08-12T05:16:13;100458.88;;;20.32;99.66
24558;BME280;12726;49.148;8.582;2023-08-12T05:18:59;100471.22;;;20.40;99.74
24558;BME280;12726;49.148;8.582;2023-08-12T05:21:44;100463.28;;;20.43;99.54
24558;BME280;12726;49.148;8.582;2023-08-12T05:24:30;100450.69;;;20.47;98.99
24558;BME280;12726;49.148;8.582;2023-08-12T05:27:15;100447.13;;;20.52;98.22
24558;BME280;12726;49.148;8.582;2023-08-12T05:30:00;100454.53;;;20.51;97.75
24558;BME280;12726;49.148;8.582;2023-08-12T05:32:47;100470.94;;;20.51;98.24
24558;BME280;12726;49.148;8.582;2023-08-12T05:35:32;100451.78;;;20.51;98.37
24558;BME280;12726;49.148;8.582;2023-08-12T05:38:18;100458.34;;;20.55;98.53
24558;BME280;12726;49.148;8.582;2023-08-12T05:41:03;100452.84;;;20.60;98.79
24558;BME280;12726;49.148;8.582;2023-08-12T05:43:51;100444.34;;;20.72;97.89
24558;BME280;12726;49.148;8.582;2023-08-12T05:46:36;100445.34;;;20.96;96.93
24558;BME280;12726;49.148;8.582;2023-08-12T05:49:23;100456.78;;;21.14;95.70
24558;BME280;12726;49.148;8.582;2023-08-12T05:52:09;100461.72;;;21.17;94.89
24558;BME280;12726;49.148;8.582;2023-08-12T05:54:54;100469.34;;;21.20;94.21
24558;BME280;12726;49.148;8.582;2023-08-12T05:57:39;100483.59;;;21.11;94.08
24558;BME280;12726;49.148;8.582;2023-08-12T06:00:25;100474.63;;;21.01;95.38
24558;BME280;12726;49.148;8.582;2023-08-12T06:03:10;100470.78;;;20.97;96.57
24558;BME280;12726;49.148;8.582;2023-08-12T06:05:57;100478.44;;;21.05;96.87
24558;BME280;12726;49.148;8.582;2023-08-12T06:08:42;100472.91;;;21.20;96.54
24558;BME280;12726;49.148;8.582;2023-08-12T06:11:28;100474.41;;;21.46;96.25
24558;BME280;12726;49.148;8.582;2023-08-12T06:14:14;100469.00;;;21.80;95.39
24558;BME280;12726;49.148;8.582;2023-08-12T06:16:59;100465.88;;;22.02;92.77
24558;BME280;12726;49.148;8.582;2023-08-12T06:19:44;100462.75;;;22.43;90.11
24558;BME280;12726;49.148;8.582;2023-08-12T06:22:31;100469.81;;;22.49;87.87
24558;BME280;12726;49.148;8.582;2023-08-12T06:25:16;100470.56;;;22.54;87.27
24558;BME280;12726;49.148;8.582;2023-08-12T06:28:02;100478.53;;;22.56;85.73
24558;BME280;12726;49.148;8.582;2023-08-12T06:30:48;100482.16;;;22.46;87.05
24558;BME280;12726;49.148;8.582;2023-08-12T06:33:33;100475.84;;;22.51;87.23
24558;BME280;12726;49.148;8.582;2023-08-12T06:36:19;100470.22;;;22.61;87.79
24558;BME280;12726;49.148;8.582;2023-08-12T06:39:05;100471.88;;;22.62;86.81
24558;BME280;12726;49.148;8.582;2023-08-12T06:41:51;100468.78;;;22.69;87.49
24558;BME280;12726;49.148;8.582;2023-08-12T06:44:36;100472.31;;;22.74;87.48
24558;BME280;12726;49.148;8.582;2023-08-12T06:47:21;100468.75;;;22.74;86.27
24558;BME280;12726;49.148;8.582;2023-08-12T06:50:08;100469.19;;;22.86;87.07
24558;BME280;12726;49.148;8.582;2023-08-12T06:52:53;100472.09;;;22.94;86.18
24558;BME280;12726;49.148;8.582;2023-08-12T06:55:44;100483.84;;;23.00;86.79
24558;BME280;12726;49.148;8.582;2023-08-12T06:58:30;100477.81;;;22.98;86.91
24558;BME280;12726;49.148;8.582;2023-08-12T07:01:16;100468.53;;;22.94;87.63
24558;BME280;12726;49.148;8.582;2023-08-12T07:04:02;100478.06;;;23.01;87.40
24558;BME280;12726;49.148;8.582;2023-08-12T07:06:47;100466.81;;;23.22;87.30
24558;BME280;12726;49.148;8.582;2023-08-12T07:09:32;100477.06;;;23.59;85.54
24558;BME280;12726;49.148;8.582;2023-08-12T07:12:19;100477.41;;;23.71;85.21
24558;BME280;12726;49.148;8.582;2023-08-12T07:15:05;100483.66;;;23.76;81.60
24558;BME280;12726;49.148;8.582;2023-08-12T07:17:51;100475.00;;;23.83;81.85
24558;BME280;12726;49.148;8.582;2023-08-12T07:20:37;100478.72;;;23.92;81.10
24558;BME280;12726;49.148;8.582;2023-08-12T07:23:22;100479.84;;;23.91;82.03
24558;BME280;12726;49.148;8.582;2023-08-12T07:26:08;100484.44;;;23.96;82.05
24558;BME280;12726;49.148;8.582;2023-08-12T07:28:56;100490.56;;;23.93;82.22
24558;BME280;12726;49.148;8.582;2023-08-12T07:31:41;100478.50;;;23.89;82.60
24558;BME280;12726;49.148;8.582;2023-08-12T07:34:27;100473.66;;;23.99;82.13
24558;BME280;12726;49.148;8.582;2023-08-12T07:37:12;100469.56;;;23.97;81.78
24558;BME280;12726;49.148;8.582;2023-08-12T07:39:58;100455.75;;;24.34;81.23
24558;BME280;12726;49.148;8.582;2023-08-12T07:42:43;100461.44;;;24.24;79.85
24558;BME280;12726;49.148;8.582;2023-08-12T07:45:30;100473.63;;;24.18;80.58
24558;BME280;12726;49.148;8.582;2023-08-12T07:48:15;100473.38;;;24.33;79.89
24558;BME280;12726;49.148;8.582;2023-08-12T07:51:00;100471.22;;;24.76;76.06
24558;BME280;12726;49.148;8.582;2023-08-12T07:53:46;100465.31;;;25.96;72.70
24558;BME280;12726;49.148;8.582;2023-08-12T07:56:31;100458.72;;;26.50;69.74
24558;BME280;12726;49.148;8.582;2023-08-12T07:59:17;100461.06;;;26.12;71.17
24558;BME280;12726;49.148;8.582;2023-08-12T08:02:04;100458.09;;;25.86;71.21
24558;BME280;12726;49.148;8.582;2023-08-12T08:04:50;100466.25;;;25.55;73.47
24558;BME280;12726;49.148;8.582;2023-08-12T08:07:35;100461.16;;;25.62;73.46
24558;BME280;12726;49.148;8.582;2023-08-12T08:10:21;100457.66;;;26.68;69.39
24558;BME280;12726;49.148;8.582;2023-08-12T08:13:06;100455.41;;;27.10;67.55
24558;BME280;12726;49.148;8.582;2023-08-12T08:15:52;100465.94;;;26.99;67.73
24558;BME280;12726;49.148;8.582;2023-08-12T08:18:39;100454.03;;;26.59;69.29
24558;BME280;12726;49.148;8.582;2023-08-12T08:21:25;100464.75;;;28.00;68.29
24558;BME280;12726;49.148;8.582;2023-08-12T08:24:10;100460.38;;;28.71;63.90
24558;BME280;12726;49.148;8.582;2023-08-12T08:26:56;100457.50;;;29.27;61.42
24558;BME280;12726;49.148;8.582;2023-08-12T08:29:41;100457.75;;;29.63;57.76
24558;BME280;12726;49.148;8.582;2023-08-12T08:32:27;100444.63;;;29.93;59.25
24558;BME280;12726;49.148;8.582;2023-08-12T08:35:14;100446.56;;;30.70;55.68
24558;BME280;12726;49.148;8.582;2023-08-12T08:37:59;100457.50;;;31.12;53.81
24558;BME280;12726;49.148;8.582;2023-08-12T08:40:44;100448.66;;;30.73;52.86
24558;BME280;12726;49.148;8.582;2023-08-12T08:43:30;100464.53;;;29.95;56.58
24558;BME280;12726;49.148;8.582;2023-08-12T08:46:16;100461.88;;;29.57;58.10
24558;BME280;12726;49.148;8.582;2023-08-12T08:49:02;100473.56;;;28.83;59.28
24558;BME280;12726;49.148;8.582;2023-08-12T08:51:52;100470.75;;;28.28;61.91
24558;BME280;12726;49.148;8.582;2023-08-12T08:54:39;100468.84;;;28.84;63.17
24558;BME280;12726;49.148;8.582;2023-08-12T08:57:24;100464.84;;;29.73;60.42
24558;BME280;12726;49.148;8.582;2023-08-12T09:00:10;100466.38;;;30.24;56.62
24558;BME280;12726;49.148;8.582;2023-08-12T09:02:57;100457.44;;;30.18;55.90
24558;BME280;12726;49.148;8.582;2023-08-12T09:05:43;100456.69;;;29.76;57.37
24558;BME280;12726;49.148;8.582;2023-08-12T09:08:31;100454.03;;;30.01;59.01
24558;BME280;12726;49.148;8.582;2023-08-12T09:11:17;100459.25;;;30.47;57.06
24558;BME280;12726;49.148;8.582;2023-08-12T09:14:03;100457.00;;;31.22;53.47
24558;BME280;12726;49.148;8.582;2023-08-12T09:16:49;100450.13;;;32.24;52.09
24558;BME280;12726;49.148;8.582;2023-08-12T09:19:34;100441.53;;;32.76;51.20
24558;BME280;12726;49.148;8.582;2023-08-12T09:22:20;100441.88;;;32.43;49.23
24558;BME280;12726;49.148;8.582;2023-08-12T09:25:10;100447.56;;;32.47;49.75
24558;BME280;12726;49.148;8.582;2023-08-12T09:27:58;100451.75;;;32.56;49.78
24558;BME280;12726;49.148;8.582;2023-08-12T09:30:50;100444.31;;;32.45;47.30
24558;BME280;12726;49.148;8.582;2023-08-12T09:33:39;100434.97;;;31.29;50.83
24558;BME280;12726;49.148;8.582;2023-08-12T09:36:27;100437.69;;;31.94;52.20
24558;BME280;12726;49.148;8.582;2023-08-12T09:39:13;100436.13;;;31.80;48.97
24558;BME280;12726;49.148;8.582;2023-08-12T09:42:00;100433.28;;;32.20;48.77
24558;BME280;12726;49.148;8.582;2023-08-12T09:44:46;100429.91;;;32.43;49.08
24558;BME280;12726;49.148;8.582;2023-08-12T09:47:33;100423.72;;;32.49;48.07
24558;BME280;12726;49.148;8.582;2023-08-12T09:50:21;100420.91;;;32.34;47.97
24558;BME280;12726;49.148;8.582;2023-08-12T09:53:06;100429.38;;;32.84;46.58
24558;BME280;12726;49.148;8.582;2023-08-12T09:55:52;100437.09;;;33.07;46.87
24558;BME280;12726;49.148;8.582;2023-08-12T09:58:39;100442.94;;;32.23;48.35
24558;BME280;12726;49.148;8.582;2023-08-12T10:01:27;100433.16;;;31.73;50.17
24558;BME280;12726;49.148;8.582;2023-08-12T10:04:15;100426.94;;;31.52;49.88
24558;BME280;12726;49.148;8.582;2023-08-12T10:07:02;100424.09;;;32.04;51.32
24558;BME280;12726;49.148;8.582;2023-08-12T10:09:48;100424.63;;;32.10;50.95
24558;BME280;12726;49.148;8.582;2023-08-12T10:12:34;100428.06;;;31.63;50.74
24558;BME280;12726;49.148;8.582;2023-08-12T10:15:22;100426.97;;;32.08;51.24
24558;BME280;12726;49.148;8.582;2023-08-12T10:18:08;100424.78;;;32.29;48.94
24558;BME280;12726;49.148;8.582;2023-08-12T10:20:56;100423.34;;;32.66;47.23
24558;BME280;12726;49.148;8.582;2023-08-12T10:23:45;100428.22;;;32.85;47.15
24558;BME280;12726;49.148;8.582;2023-08-12T10:26:32;100420.91;;;32.65;48.37
24558;BME280;12726;49.148;8.582;2023-08-12T10:29:18;100430.28;;;32.13;49.39
24558;BME280;12726;49.148;8.582;2023-08-12T10:32:04;100432.53;;;31.80;51.83
24558;BME280;12726;49.148;8.582;2023-08-12T10:34:54;100424.41;;;32.62;50.08
24558;BME280;12726;49.148;8.582;2023-08-12T10:37:40;100415.91;;;32.71;49.07
24558;BME280;12726;49.148;8.582;2023-08-12T10:40:26;100402.56;;;32.95;48.48
24558;BME280;12726;49.148;8.582;2023-08-12T10:43:12;100410.66;;;33.35;46.48
24558;BME280;12726;49.148;8.582;2023-08-12T10:45:57;100418.31;;;32.88;48.37
24558;BME280;12726;49.148;8.582;2023-08-12T10:48:56;100413.91;;;32.55;49.96
24558;BME280;12726;49.148;8.582;2023-08-12T10:51:44;100425.88;;;32.56;49.74
24558;BME280;12726;49.148;8.582;2023-08-12T10:54:30;100428.19;;;32.22;50.85
24558;BME280;12726;49.148;8.582;2023-08-12T10:57:15;100425.41;;;31.67;51.98
24558;BME280;12726;49.148;8.582;2023-08-12T11:00:02;100443.91;;;30.86;54.07
24558;BME280;12726;49.148;8.582;2023-08-12T11:02:49;100452.91;;;30.14;54.83
24558;BME280;12726;49.148;8.582;2023-08-12T11:05:37;100469.22;;;29.03;56.83
24558;BME280;12726;49.148;8.582;2023-08-12T11:08:26;100463.56;;;28.44;58.44
24558;BME280;12726;49.148;8.582;2023-08-12T11:11:19;100461.66;;;27.93;59.70
24558;BME280;12726;49.148;8.582;2023-08-12T11:14:13;100456.31;;;27.53;62.72
24558;BME280;12726;49.148;8.582;2023-08-12T11:16:59;100429.75;;;27.35;62.43
24558;BME280;12726;49.148;8.582;2023-08-12T11:19:44;100415.28;;;27.21;65.09
24558;BME280;12726;49.148;8.582;2023-08-12T11:22:32;100412.47;;;27.04;69.90
24558;BME280;12726;49.148;8.582;2023-08-12T11:25:18;100406.50;;;26.79;72.13
24558;BME280;12726;49.148;8.582;2023-08-12T11:28:05;100401.31;;;26.38;75.40
24558;BME280;12726;49.148;8.582;2023-08-12T11:30:50;100413.13;;;26.08;78.46
24558;BME280;12726;49.148;8.582;2023-08-12T11:33:35;100431.53;;;25.90;80.09
24558;BME280;12726;49.148;8.582;2023-08-12T11:36:21;100440.75;;;25.63;83.55
24558;BME280;12726;49.148;8.582;2023-08-12T11:39:08;100441.56;;;25.64;88.08
24558;BME280;12726;49.148;8.582;2023-08-12T11:41:53;100451.94;;;25.67;90.69
24558;BME280;12726;49.148;8.582;2023-08-12T11:44:39;100459.25;;;25.85;91.53
24558;BME280;12726;49.148;8.582;2023-08-12T11:47:25;100452.19;;;26.24;89.06
24558;BME280;12726;49.148;8.582;2023-08-12T11:50:12;100457.16;;;26.66;86.57
24558;BME280;12726;49.148;8.582;2023-08-12T11:52:57;100455.38;;;26.93;85.76
24558;BME280;12726;49.148;8.582;2023-08-12T11:55:44;100448.25;;;27.17;84.16
24558;BME280;12726;49.148;8.582;2023-08-12T11:58:35;100448.41;;;27.04;81.53
24558;BME280;12726;49.148;8.582;2023-08-12T12:01:21;100445.81;;;26.68;80.04
24558;BME280;12726;49.148;8.582;2023-08-12T12:04:10;100437.72;;;26.71;78.82
24558;BME280;12726;49.148;8.582;2023-08-12T12:06:55;100439.91;;;27.00;80.46
24558;BME280;12726;49.148;8.582;2023-08-12T12:09:43;100435.47;;;27.90;76.47
24558;BME280;12726;49.148;8.582;2023-08-12T12:12:29;100434.31;;;28.00;71.70
24558;BME280;12726;49.148;8.582;2023-08-12T12:15:14;100431.91;;;28.62;72.90
24558;BME280;12726;49.148;8.582;2023-08-12T12:18:00;100437.06;;;29.40;70.08
24558;BME280;12726;49.148;8.582;2023-08-12T12:20:55;100436.28;;;29.93;63.35
24558;BME280;12726;49.148;8.582;2023-08-12T12:23:41;100434.53;;;29.88;63.74
24558;BME280;12726;49.148;8.582;2023-08-12T12:26:26;100436.25;;;29.60;65.53
24558;BME280;12726;49.148;8.582;2023-08-12T12:29:13;100442.44;;;29.36;63.01
24558;BME280;12726;49.148;8.582;2023-08-12T12:31:58;100438.63;;;29.20;65.05
24558;BME280;12726;49.148;8.582;2023-08-12T12:34:44;100445.75;;;29.00;67.48
24558;BME280;12726;49.148;8.582;2023-08-12T12:37:29;100440.50;;;29.28;67.13
24558;BME280;12726;49.148;8.582;2023-08-12T12:40:15;100437.56;;;29.33;67.53
24558;BME280;12726;49.148;8.582;2023-08-12T12:43:00;100433.53;;;29.51;63.11
24558;BME280;12726;49.148;8.582;2023-08-12T12:45:48;100432.22;;;29.49;65.14
24558;BME280;12726;49.148;8.582;2023-08-12T12:48:33;100430.78;;;29.22;67.08
24558;BME280;12726;49.148;8.582;2023-08-12T12:51:19;100426.97;;;29.35;63.82
24558;BME280;12726;49.148;8.582;2023-08-12T12:54:04;100424.84;;;29.94;63.14
24558;BME280;12726;49.148;8.582;2023-08-12T12:56:50;100425.06;;;30.34;63.75
24558;BME280;12726;49.148;8.582;2023-08-12T12:59:35;100432.63;;;30.46;61.92
24558;BME280;12726;49.148;8.582;2023-08-12T13:02:22;100428.84;;;30.51;60.43
24558;BME280;12726;49.148;8.582;2023-08-12T13:05:07;100422.66;;;30.45;62.10
24558;BME280;12726;49.148;8.582;2023-08-12T13:07:53;100423.75;;;30.53;63.01
24558;BME280;12726;49.148;8.582;2023-08-12T13:10:38;100427.59;;;30.72;61.51
24558;BME280;12726;49.148;8.582;2023-08-12T13:13:24;100445.31;;;31.04;60.09
24558;BME280;12726;49.148;8.582;2023-08-12T13:16:10;100434.19;;;30.80;61.22
24558;BME280;12726;49.148;8.582;2023-08-12T13:18:57;100440.09;;;30.66;60.33
24558;BME280;12726;49.148;8.582;2023-08-12T13:21:43;100439.63;;;30.64;61.04
24558;BME280;12726;49.148;8.582;2023-08-12T13:24:29;100436.16;;;30.80;60.95
24558;BME280;12726;49.148;8.582;2023-08-12T13:27:14;100442.28;;;30.61;60.84
24558;BME280;12726;49.148;8.582;2023-08-12T13:30:01;100440.91;;;30.34;62.68
24558;BME280;12726;49.148;8.582;2023-08-12T13:32:48;100439.28;;;30.21;62.48
24558;BME280;12726;49.148;8.582;2023-08-12T13:35:35;100445.84;;;30.04;59.71
24558;BME280;12726;49.148;8.582;2023-08-12T13:38:20;100432.00;;;29.63;61.38
24558;BME280;12726;49.148;8.582;2023-08-12T13:41:06;100432.16;;;29.37;59.77
24558;BME280;12726;49.148;8.582;2023-08-12T13:43:51;100437.06;;;29.31;60.79
24558;BME280;12726;49.148;8.582;2023-08-12T13:46:36;100439.91;;;29.23;63.16
24558;BME280;12726;49.148;8.582;2023-08-12T13:49:22;100425.13;;;28.89;63.45
24558;BME280;12726;49.148;8.582;2023-08-12T13:52:09;100431.50;;;28.81;65.77
24558;BME280;12726;49.148;8.582;2023-08-12T13:54:54;100429.03;;;28.88;63.46
24558;BME280;12726;49.148;8.582;2023-08-12T13:57:39;100420.75;;;29.09;60.66
24558;BME280;12726;49.148;8.582;2023-08-12T14:00:25;100414.97;;;28.93;63.67
24558;BME280;12726;49.148;8.582;2023-08-12T14:03:10;100414.34;;;28.88;66.97
24558;BME280;12726;49.148;8.582;2023-08-12T14:05:56;100406.66;;;28.93;67.07
24558;BME280;12726;49.148;8.582;2023-08-12T14:08:42;100392.94;;;28.97;67.48
24558;BME280;12726;49.148;8.582;2023-08-12T14:11:28;100392.13;;;28.96;68.39
24558;BME280;12726;49.148;8.582;2023-08-12T14:14:13;100383.91;;;28.79;69.33
24558;BME280;12726;49.148;8.582;2023-08-12T14:16:58;100382.50;;;28.64;68.59
24558;BME280;12726;49.148;8.582;2023-08-12T14:19:44;100381.28;;;28.44;69.88
24558;BME280;12726;49.148;8.582;2023-08-12T14:22:32;100371.91;;;28.28;67.89
24558;BME280;12726;49.148;8.582;2023-08-12T14:25:19;100376.84;;;28.05;68.27